Time;durP1;ratioP1;P1;durP2;ratioP2;P2;SDS_P1;SDS_P2;PMS_P1;PMS_P2;Temp;Humidity;BMP_temperature;BMP_pressure;BME280_temperature;BME280_humidity;BME280_pressure;Samples;Min_cycle;Max_cycle;Signal;HPM_P1;HPM_P2
2024/03/19 00:02:39;;;;;;;9.47;4.93;;;;;;;10.42;100.00;100101.16;31555726;28;20040;-78
2024/03/19 00:17:40;;;;;;;7.90;4.30;;;;;;;9.36;100.00;100097.53;31596587;28;20528;-77
2024/03/19 00:32:41;;;;;;;8.33;5.00;;;;;;;8.86;100.00;100081.97;31538049;28;20059;-78
2024/03/19 00:47:42;;;;;;;8.70;4.53;;;;;;;8.98;100.00;100075.22;31563207;28;20493;-78
2024/03/19 01:02:44;;;;;;;10.47;4.63;;;;;;;8.87;100.00;100067.25;31536289;28;20086;-78
2024/03/19 01:17:45;;;;;;;11.07;5.33;;;;;;;8.79;100.00;100033.31;31612696;28;20425;-78
2024/03/19 01:32:48;;;;;;;10.97;5.73;;;;;;;8.49;100.00;100048.41;31606804;28;20055;-78
2024/03/19 01:47:49;;;;;;;14.27;6.50;;;;;;;8.62;100.00;100045.16;31661399;28;20520;-77
2024/03/19 02:02:50;;;;;;;12.57;6.87;;;;;;;8.69;100.00;100039.66;31586074;28;20044;-77
2024/03/19 02:17:51;;;;;;;15.82;7.00;;;;;;;8.68;100.00;100043.53;31606961;28;20063;-78
2024/03/19 02:32:52;;;;;;;12.93;5.97;;;;;;;8.26;100.00;100050.19;31611300;28;20048;-73
2024/03/19 02:47:53;;;;;;;15.32;7.32;;;;;;;8.57;100.00;100064.53;31613393;28;20044;-72
2024/03/19 03:02:54;;;;;;;25.43;11.73;;;;;;;8.51;100.00;100083.91;31609744;28;20048;-72
2024/03/19 03:17:55;;;;;;;22.45;10.55;;;;;;;8.48;100.00;100103.69;31596873;28;20485;-73
2024/03/19 03:32:56;;;;;;;22.93;9.80;;;;;;;8.49;100.00;100116.03;31574104;28;20054;-73
2024/03/19 03:47:57;;;;;;;20.83;10.63;;;;;;;8.50;100.00;100116.81;31603176;28;20140;-73
2024/03/19 04:02:58;;;;;;;40.93;20.03;;;;;;;8.50;100.00;100120.25;31614221;28;20576;-74
2024/03/19 04:18:00;;;;;;;24.47;11.53;;;;;;;8.58;100.00;100128.31;31605936;28;20063;-73
2024/03/19 04:33:01;;;;;;;19.43;8.17;;;;;;;8.69;100.00;100139.78;31579182;28;20459;-72
2024/03/19 04:48:02;;;;;;;19.87;8.23;;;;;;;8.85;100.00;100146.16;31606632;28;20142;-73
2024/03/19 05:03:03;;;;;;;21.27;8.63;;;;;;;8.84;100.00;100149.28;31561241;28;20048;-74
2024/03/19 05:18:04;;;;;;;33.97;15.00;;;;;;;8.86;100.00;100168.59;31562884;28;20056;-73
2024/03/19 05:33:05;;;;;;;30.27;14.73;;;;;;;9.17;100.00;100183.69;31593685;28;20417;-73
2024/03/19 05:48:07;;;;;;;27.97;12.27;;;;;;;9.73;100.00;100202.25;31588515;28;20497;-71
2024/03/19 06:03:08;;;;;;;23.10;10.80;;;;;;;9.69;100.00;100221.28;31592854;28;20071;-71
2024/03/19 06:18:09;;;;;;;17.60;9.00;;;;;;;9.90;100.00;100239.97;31594492;28;20049;-71
2024/03/19 06:33:10;;;;;;;19.10;8.43;;;;;;;9.79;100.00;100249.44;31557012;28;20493;-72
2024/03/19 06:48:11;;;;;;;16.50;8.57;;;;;;;11.12;100.00;100255.75;31600427;28;21021;-80
2024/03/19 07:03:13;;;;;;;16.70;7.90;;;;;;;10.96;100.00;100250.25;31635964;28;20495;-80
2024/03/19 07:18:14;;;;;;;17.50;9.17;;;;;;;10.24;100.00;100247.22;31578891;28;20424;-79
2024/03/19 07:33:15;;;;;;;17.33;9.07;;;;;;;10.93;100.00;100226.63;31603530;28;20056;-79
2024/03/19 07:48:16;;;;;;;18.42;9.05;;;;;;;12.94;100.00;100236.00;31595580;28;20140;-79
2024/03/19 08:03:18;;;;;;;30.47;12.87;;;;;;;13.44;100.00;100229.94;31559951;28;20455;-78
2024/03/19 08:18:19;;;;;;;47.83;20.57;;;;;;;13.34;100.00;100213.91;31654343;28;20052;-80
2024/03/19 08:33:20;;;;;;;24.08;11.63;;;;;;;14.70;100.00;100206.41;31550644;28;20102;-78
2024/03/19 08:48:21;;;;;;;41.07;19.30;;;;;;;15.54;100.00;100192.81;31616334;27;20087;-79
2024/03/19 09:03:22;;;;;;;27.70;12.80;;;;;;;16.46;95.73;100196.56;31583694;28;20312;-78
2024/03/19 09:18:23;;;;;;;19.40;10.73;;;;;;;16.86;93.22;100179.97;31585783;28;20056;-78
2024/03/19 09:33:25;;;;;;;14.80;8.50;;;;;;;17.07;100.00;100189.97;31584295;28;20551;-79
2024/03/19 09:48:27;;;;;;;17.17;9.60;;;;;;;17.96;85.49;100186.59;31587174;28;20063;-79
2024/03/19 10:03:28;;;;;;;16.23;8.80;;;;;;;16.60;99.79;100174.78;31619080;28;20040;-77
2024/03/19 10:18:29;;;;;;;12.17;7.83;;;;;;;15.71;100.00;100176.94;31573604;28;20071;-80
2024/03/19 10:33:36;;;;;;;11.60;6.63;;;;;;;15.44;100.00;100180.28;31610208;28;20059;-77
2024/03/19 10:48:40;;;;;;;11.03;6.07;;;;;;;15.51;100.00;100169.09;31617070;28;20048;-79
2024/03/19 11:03:41;;;;;;;12.37;6.60;;;;;;;16.51;100.00;100160.34;31594318;28;20059;-77
2024/03/19 11:18:44;;;;;;;17.50;7.60;;;;;;;17.44;88.78;100145.97;31575517;28;20264;-75
2024/03/19 11:33:46;;;;;;;8.57;5.93;;;;;;;17.20;91.69;100140.44;31562885;28;20063;-73
2024/03/19 11:48:51;;;;;;;8.13;5.73;;;;;;;18.90;70.57;100133.94;31602016;28;20060;-79
2024/03/19 12:03:52;;;;;;;;;;;;;;;18.08;81.35;100116.19;31575376;28;20109;-77
2024/03/19 12:18:53;;;;;;;12.13;5.93;;;;;;;17.77;80.75;100118.53;31594258;28;19927;-79
2024/03/19 12:34:15;;;;;;;11.37;5.93;;;;;;;16.25;98.36;100116.03;31568145;28;20059;-79
2024/03/19 12:49:15;;;;;;;5.83;3.57;;;;;;;14.96;100.00;100111.41;31607402;28;20056;-77
2024/03/19 13:04:17;;;;;;;6.83;3.87;;;;;;;15.50;100.00;100096.44;31562155;28;20508;-77
2024/03/19 13:19:18;;;;;;;7.63;3.93;;;;;;;14.39;100.00;100088.88;31527384;28;20059;-78
2024/03/19 13:34:20;;;;;;;9.03;3.83;;;;;;;14.41;100.00;100078.28;31584185;28;20055;-78
2024/03/19 13:49:26;;;;;;;6.70;3.43;;;;;;;14.54;100.00;100078.97;31553539;28;20040;-78
2024/03/19 14:04:30;;;;;;;6.63;3.60;;;;;;;14.79;100.00;100060.91;31590839;28;20051;-79
2024/03/19 14:19:31;;;;;;;7.23;3.80;;;;;;;14.73;100.00;100085.31;31575801;28;20460;-77
2024/03/19 14:34:32;;;;;;;7.70;4.75;;;;;;;13.95;100.00;100104.41;31607213;28;20047;-77
2024/03/19 14:49:33;;;;;;;8.33;3.73;;;;;;;14.04;100.00;100139.22;31574270;28;20044;-79
2024/03/19 15:04:34;;;;;;;9.50;7.33;;;;;;;13.17;100.00;100101.47;31599334;28;20123;-77
2024/03/19 15:19:35;;;;;;;28.77;6.03;;;;;;;12.61;100.00;100112.78;31575324;28;20060;-76
2024/03/19 15:35:01;;;;;;;15.77;7.17;;;;;;;13.08;100.00;100126.59;31635341;28;20085;-83
2024/03/19 15:50:05;;;;;;;9.60;4.53;;;;;;;12.99;100.00;100159.19;31560902;28;20069;-83
2024/03/19 16:05:06;;;;;;;15.37;5.60;;;;;;;12.50;100.00;100137.59;31586808;28;20060;-85
2024/03/19 16:20:09;;;;;;;11.13;6.23;;;;;;;12.45;100.00;100145.50;31567390;28;20052;-88
2024/03/19 16:35:12;;;;;;;8.93;5.20;;;;;;;12.01;100.00;100193.28;31543538;28;20489;-77
2024/03/19 16:50:14;;;;;;;7.63;4.00;;;;;;;11.34;100.00;100133.03;31643857;28;20070;-82
2024/03/19 17:05:17;;;;;;;6.93;3.70;;;;;;;11.13;100.00;100175.78;31588845;28;20055;-77
2024/03/19 17:20:18;;;;;;;7.97;3.53;;;;;;;11.15;100.00;100184.28;31566222;28;20052;-78
2024/03/19 17:35:19;;;;;;;8.47;3.90;;;;;;;11.48;100.00;100185.13;31573111;28;20102;-79
2024/03/19 17:50:20;;;;;;;13.13;4.30;;;;;;;11.38;100.00;100182.63;31567820;28;20066;-78
2024/03/19 18:05:21;;;;;;;10.90;4.33;;;;;;;11.36;100.00;100198.59;31569830;28;20125;-76
2024/03/19 18:20:22;;;;;;;12.30;4.93;;;;;;;11.37;100.00;100190.03;31544647;28;20044;-77
2024/03/19 18:35:23;;;;;;;8.75;4.28;;;;;;;11.23;100.00;100174.78;31580976;28;20051;-80
2024/03/19 18:50:24;;;;;;;9.57;4.67;;;;;;;10.85;100.00;100179.09;31610282;28;20065;-80
2024/03/19 19:05:26;;;;;;;9.13;5.03;;;;;;;10.71;100.00;100192.91;31594621;28;20064;-80
2024/03/19 19:20:28;;;;;;;12.73;5.20;;;;;;;10.98;100.00;100192.78;31614839;28;20052;-79
2024/03/19 19:35:28;;;;;;;10.43;5.30;;;;;;;10.94;100.00;100211.88;31577488;28;20051;-80
2024/03/19 19:50:29;;;;;;;11.53;6.07;;;;;;;11.40;100.00;100216.38;31565864;28;20087;-78
2024/03/19 20:05:30;;;;;;;8.83;4.77;;;;;;;11.10;100.00;100197.59;31567227;28;20304;-81
2024/03/19 20:20:33;;;;;;;10.23;5.28;;;;;;;11.46;100.00;100219.34;31599128;28;20112;-79
2024/03/19 20:35:34;;;;;;;14.50;5.93;;;;;;;11.34;100.00;100209.16;31606440;28;20059;-73
2024/03/19 20:50:36;;;;;;;30.77;12.47;;;;;;;11.33;100.00;100199.47;31590272;28;20398;-72
2024/03/19 21:05:37;;;;;;;15.83;7.40;;;;;;;11.30;100.00;100181.28;31560965;28;20468;-71
2024/03/19 21:20:38;;;;;;;14.70;6.75;;;;;;;11.26;100.00;100179.41;31511016;28;20056;-72
2024/03/19 21:35:39;;;;;;;13.40;7.67;;;;;;;11.39;100.00;100187.66;31599720;28;20058;-72
2024/03/19 21:50:40;;;;;;;17.20;7.47;;;;;;;11.40;100.00;100172.09;31565803;28;20052;-71
2024/03/19 22:05:41;;;;;;;18.87;8.07;;;;;;;11.35;100.00;100170.66;31554548;28;20512;-73
2024/03/19 22:20:42;;;;;;;16.48;8.45;;;;;;;11.31;100.00;100174.66;31570437;28;20085;-72
2024/03/19 22:35:43;;;;;;;18.42;8.57;;;;;;;11.43;100.00;100160.41;31612557;28;20130;-77
2024/03/19 22:50:47;;;;;;;20.33;9.60;;;;;;;11.66;100.00;100143.19;31646868;28;20056;-77
2024/03/19 23:05:48;;;;;;;19.17;9.33;;;;;;;11.48;100.00;100143.59;31593416;28;20063;-78
2024/03/19 23:20:49;;;;;;;24.42;9.95;;;;;;;11.51;100.00;100145.47;31610986;28;20456;-79
2024/03/19 23:35:50;;;;;;;22.03;9.70;;;;;;;11.80;100.00;100145.59;31565022;28;20405;-78
2024/03/19 23:50:52;;;;;;;21.90;11.23;;;;;;;11.40;100.00;100131.34;31587592;28;20130;-78
